Time;durP1;ratioP1;P1;durP2;ratioP2;P2;SDS_P1;SDS_P2;PMS_P1;PMS_P2;Temp;Humidity;BMP_temperature;BMP_pressure;BME280_temperature;BME280_humidity;BME280_pressure;Samples;Min_cycle;Max_cycle;Signal;HPM_P1;HPM_P2
2023/06/11 00:00:59;;;;;;;6.38;3.97;;;26.30;58.10;;;;;;5097457;28;20066;-83
2023/06/11 00:03:24;;;;;;;4.63;3.70;;;26.30;58.40;;;;;;5097372;28;20142;-83
2023/06/11 00:05:51;;;;;;;4.72;3.92;;;26.30;58.50;;;;;;5095803;28;20084;-83
2023/06/11 00:08:17;;;;;;;5.15;4.15;;;26.30;58.50;;;;;;5097100;28;20418;-83
2023/06/11 00:10:43;;;;;;;3.78;3.42;;;26.30;58.50;;;;;;5078984;28;20035;-83
2023/06/11 00:13:09;;;;;;;6.35;3.92;;;26.30;58.50;;;;;;5096374;28;20028;-83
2023/06/11 00:15:35;;;;;;;5.32;4.20;;;26.30;58.70;;;;;;5079556;28;20028;-83
2023/06/11 00:18:01;;;;;;;6.95;4.00;;;26.20;58.90;;;;;;5096559;28;20069;-84
2023/06/11 00:20:27;;;;;;;7.45;4.00;;;26.20;59.30;;;;;;5095551;28;20039;-83
2023/06/11 00:22:53;;;;;;;8.77;4.25;;;26.10;59.20;;;;;;5096757;28;20085;-83
2023/06/11 00:25:19;;;;;;;4.13;3.75;;;26.10;59.30;;;;;;5096297;28;20055;-83
2023/06/11 00:27:44;;;;;;;5.40;4.20;;;26.10;59.50;;;;;;5096752;28;20028;-83
2023/06/11 00:30:11;;;;;;;7.20;4.57;;;26.00;59.60;;;;;;5096684;28;20028;-83
2023/06/11 00:32:37;;;;;;;4.82;4.15;;;26.00;59.80;;;;;;5078420;28;20059;-83
2023/06/11 00:35:07;;;;;;;4.85;3.65;;;25.90;60.00;;;;;;5078198;28;20101;-83
2023/06/11 00:37:34;;;;;;;9.38;4.38;;;25.90;60.20;;;;;;5096573;28;20048;-83
2023/06/11 00:39:59;;;;;;;6.63;4.40;;;25.80;60.60;;;;;;5096557;28;20068;-83
2023/06/11 00:42:27;;;;;;;6.15;3.97;;;25.70;60.80;;;;;;5078197;28;20081;-84
2023/06/11 00:44:54;;;;;;;6.95;3.92;;;25.60;60.90;;;;;;5095243;28;20024;-84
2023/06/11 00:47:20;;;;;;;6.38;4.65;;;25.60;61.10;;;;;;5095432;28;20039;-83
2023/06/11 00:49:46;;;;;;;7.40;4.10;;;25.50;61.20;;;;;;5096246;28;20032;-83
2023/06/11 00:52:15;;;;;;;9.98;4.05;;;25.50;61.60;;;;;;5095035;28;20032;-83
2023/06/11 00:54:41;;;;;;;5.35;4.30;;;25.40;61.60;;;;;;5095150;28;20127;-84
2023/06/11 00:57:07;;;;;;;7.07;4.40;;;25.40;61.80;;;;;;5096111;28;20028;-83
2023/06/11 00:59:38;;;;;;;5.90;4.63;;;25.40;62.00;;;;;;5094849;28;20027;-84
2023/06/11 01:02:17;;;;;;;7.22;5.10;;;25.30;62.00;;;;;;5094956;28;20380;-83
2023/06/11 01:04:46;;;;;;;6.65;4.47;;;25.30;61.90;;;;;;5095676;28;20360;-83
2023/06/11 01:07:17;;;;;;;5.50;4.30;;;25.30;62.30;;;;;;5096310;28;20020;-83
2023/06/11 01:09:44;;;;;;;8.27;4.80;;;25.20;62.30;;;;;;5094530;28;20024;-83
2023/06/11 01:12:10;;;;;;;6.78;4.40;;;25.20;62.50;;;;;;5077786;28;20058;-81
2023/06/11 01:14:36;;;;;;;8.38;5.75;;;25.10;62.50;;;;;;5094653;28;20468;-84
2023/06/11 01:17:08;;;;;;;5.88;4.50;;;25.10;62.40;;;;;;5094312;28;20028;-83
2023/06/11 01:19:52;;;;;;;6.95;4.43;;;25.00;62.70;;;;;;5095119;28;20354;-83
2023/06/11 01:22:56;;;;;;;5.50;4.20;;;25.00;62.60;;;;;;5095730;28;20480;-83
2023/06/11 01:25:31;;;;;;;7.82;4.60;;;25.10;62.70;;;;;;5094983;28;20039;-83
2023/06/11 01:28:10;;;;;;;11.90;4.80;;;25.10;62.60;;;;;;5095661;28;20022;-83
2023/06/11 01:30:40;;;;;;;5.85;4.53;;;25.00;62.90;;;;;;5095919;28;20027;-83
2023/06/11 01:33:08;;;;;;;6.50;4.72;;;25.00;63.00;;;;;;5094596;28;20067;-83
2023/06/11 01:35:34;;;;;;;5.15;4.50;;;25.00;62.80;;;;;;5095533;28;20111;-83
2023/06/11 01:38:02;;;;;;;5.70;4.78;;;25.00;62.90;;;;;;5094587;28;20131;-83
2023/06/11 01:40:28;;;;;;;7.55;4.18;;;25.00;63.00;;;;;;5094976;28;20031;-83
2023/06/11 01:42:55;;;;;;;5.07;4.53;;;25.00;63.60;;;;;;5094114;28;20067;-84
2023/06/11 01:45:22;;;;;;;8.32;4.25;;;25.00;63.20;;;;;;5094161;28;20377;-83
2023/06/11 01:47:48;;;;;;;6.32;4.88;;;25.00;63.10;;;;;;5076983;28;20024;-83
2023/06/11 01:50:18;;;;;;;6.35;4.18;;;24.80;63.40;;;;;;5095239;28;20032;-83
2023/06/11 01:52:45;;;;;;;5.40;4.07;;;24.80;63.70;;;;;;5095093;28;20059;-84
2023/06/11 01:55:11;;;;;;;7.93;4.50;;;24.80;63.60;;;;;;5093567;28;20128;-83
2023/06/11 01:57:37;;;;;;;7.22;4.80;;;24.80;63.60;;;;;;5093734;28;20028;-82
2023/06/11 02:00:09;;;;;;;8.80;4.55;;;24.90;63.80;;;;;;5076820;28;20388;-83
2023/06/11 02:02:36;;;;;;;3.97;3.58;;;24.80;63.60;;;;;;5094378;28;20435;-83
2023/06/11 02:05:02;;;;;;;8.18;4.55;;;24.90;63.60;;;;;;5093347;28;20038;-83
2023/06/11 02:07:27;;;;;;;5.40;4.45;;;24.90;63.60;;;;;;5077287;28;20459;-83
2023/06/11 02:09:53;;;;;;;6.03;4.50;;;24.90;63.60;;;;;;5094067;28;20376;-83
2023/06/11 02:12:19;;;;;;;5.90;4.60;;;24.90;63.60;;;;;;5093595;28;20119;-83
2023/06/11 02:14:45;;;;;;;6.85;4.47;;;24.80;63.60;;;;;;5076554;28;20111;-83
2023/06/11 02:17:11;;;;;;;5.80;4.57;;;24.80;63.60;;;;;;5093402;28;20039;-83
2023/06/11 02:19:36;;;;;;;5.75;4.72;;;24.80;63.90;;;;;;5094609;28;20032;-83
2023/06/11 02:22:02;;;;;;;5.30;4.30;;;24.80;63.90;;;;;;5076864;28;20456;-83
2023/06/11 02:24:28;;;;;;;4.57;3.92;;;24.70;64.00;;;;;;5094199;28;20492;-83
2023/06/11 02:26:53;;;;;;;6.13;4.25;;;24.60;64.00;;;;;;5094530;28;20024;-83
2023/06/11 02:29:19;;;;;;;6.88;5.15;;;24.60;64.20;;;;;;5094499;28;20024;-83
2023/06/11 02:31:45;;;;;;;6.20;5.03;;;24.60;64.50;;;;;;5076195;28;20043;-83
2023/06/11 02:34:10;;;;;;;6.88;5.07;;;24.40;64.70;;;;;;5093675;28;20467;-83
2023/06/11 02:36:36;;;;;;;5.68;4.45;;;24.30;64.90;;;;;;5094051;28;20400;-83
2023/06/11 02:39:03;;;;;;;8.13;4.97;;;24.30;65.00;;;;;;5076162;28;20028;-83
2023/06/11 02:41:28;;;;;;;9.13;5.03;;;24.30;65.70;;;;;;5075898;28;20053;-83
2023/06/11 02:43:54;;;;;;;6.22;4.85;;;24.20;65.30;;;;;;5093027;28;20107;-83
2023/06/11 02:46:20;;;;;;;4.45;4.00;;;24.10;65.50;;;;;;5076075;28;20061;-83
2023/06/11 02:48:45;;;;;;;4.72;4.25;;;24.10;65.40;;;;;;5094145;28;20051;-83
2023/06/11 02:51:11;;;;;;;7.65;4.63;;;24.10;65.30;;;;;;5094147;28;20422;-83
2023/06/11 02:53:37;;;;;;;7.20;4.38;;;24.10;65.20;;;;;;5093877;28;20522;-83
2023/06/11 02:56:02;;;;;;;4.57;4.03;;;24.10;65.30;;;;;;5094048;28;20384;-83
2023/06/11 02:58:28;;;;;;;6.72;4.53;;;24.10;65.30;;;;;;5093096;28;20021;-83
2023/06/11 03:00:54;;;;;;;5.90;4.63;;;24.00;65.40;;;;;;5092734;28;20523;-84
2023/06/11 03:03:20;;;;;;;7.28;4.75;;;23.90;65.40;;;;;;5094058;28;20123;-83
2023/06/11 03:05:45;;;;;;;7.28;4.35;;;23.90;65.60;;;;;;5092495;28;20111;-83
2023/06/11 03:08:11;;;;;;;5.43;4.32;;;23.80;65.90;;;;;;5092377;28;20039;-83
2023/06/11 03:10:36;;;;;;;5.85;4.90;;;23.80;65.90;;;;;;5076058;28;20055;-83
2023/06/11 03:13:02;;;;;;;4.88;3.75;;;23.80;65.80;;;;;;5094097;28;20460;-83
2023/06/11 03:15:28;;;;;;;5.53;4.70;;;23.80;65.70;;;;;;5076329;28;20028;-83
2023/06/11 03:17:53;;;;;;;5.75;4.50;;;23.80;65.70;;;;;;5093138;28;20107;-83
2023/06/11 03:20:19;;;;;;;5.10;4.35;;;23.70;65.80;;;;;;5092294;28;20020;-83
2023/06/11 03:22:45;;;;;;;7.53;4.38;;;23.70;65.90;;;;;;5092515;28;20089;-83
2023/06/11 03:25:10;;;;;;;6.57;4.20;;;23.70;65.70;;;;;;5092719;28;20166;-83
2023/06/11 03:27:37;;;;;;;5.75;4.53;;;23.80;65.70;;;;;;5092499;28;20074;-83
2023/06/11 03:30:04;;;;;;;5.03;4.07;;;23.80;65.70;;;;;;5092938;28;20054;-83
2023/06/11 03:32:29;;;;;;;6.07;4.20;;;23.70;65.80;;;;;;5092297;28;20357;-83
2023/06/11 03:34:55;;;;;;;5.70;4.05;;;23.80;65.70;;;;;;5093634;28;20054;-83
2023/06/11 03:37:20;;;;;;;5.68;5.07;;;23.70;65.70;;;;;;5092724;28;20032;-84
2023/06/11 03:39:46;;;;;;;5.93;4.38;;;23.80;65.70;;;;;;5076069;28;20028;-83
2023/06/11 03:42:12;;;;;;;4.63;4.10;;;23.70;65.80;;;;;;5093513;28;20032;-83
2023/06/11 03:44:38;;;;;;;7.13;4.65;;;23.60;65.90;;;;;;5076234;28;20415;-83
2023/06/11 03:47:03;;;;;;;4.90;4.18;;;23.70;65.90;;;;;;5092590;28;20037;-84
2023/06/11 03:49:29;;;;;;;7.03;5.05;;;23.70;65.90;;;;;;5092031;28;20024;-84
2023/06/11 03:51:55;;;;;;;5.55;4.07;;;23.70;65.90;;;;;;5093047;28;20345;-83
2023/06/11 03:54:21;;;;;;;4.38;3.95;;;23.70;65.90;;;;;;5075627;28;20048;-83
2023/06/11 03:56:47;;;;;;;5.53;4.30;;;23.60;65.80;;;;;;5092144;28;20541;-83
2023/06/11 03:59:12;;;;;;;5.88;4.60;;;23.70;65.90;;;;;;5093721;28;20034;-83
2023/06/11 04:01:38;;;;;;;5.15;4.22;;;23.70;65.90;;;;;;5092037;28;20038;-83
2023/06/11 04:04:04;;;;;;;7.45;4.60;;;23.70;65.90;;;;;;5092012;28;20484;-83
2023/06/11 04:06:36;;;;;;;6.20;4.55;;;23.70;65.90;;;;;;5093085;28;20086;-83
2023/06/11 04:09:02;;;;;;;4.93;3.97;;;23.60;66.00;;;;;;5092898;28;20380;-83
2023/06/11 04:11:28;;;;;;;4.60;4.07;;;23.60;66.10;;;;;;5074852;28;20028;-83
2023/06/11 04:13:53;;;;;;;6.05;4.90;;;23.70;66.00;;;;;;5092253;28;20031;-83
2023/06/11 04:16:19;;;;;;;5.30;4.50;;;23.60;66.20;;;;;;5075919;28;20032;-83
2023/06/11 04:18:47;;;;;;;7.57;4.47;;;23.50;66.20;;;;;;5092285;28;20047;-83
2023/06/11 04:21:13;;;;;;;5.35;3.88;;;23.50;66.30;;;;;;5091952;28;20107;-83
2023/06/11 04:23:39;;;;;;;5.55;4.65;;;23.50;66.40;;;;;;5075085;28;20127;-83
2023/06/11 04:26:07;;;;;;;5.88;4.75;;;23.50;66.30;;;;;;5093490;28;20024;-83
2023/06/11 04:28:35;;;;;;;7.70;4.68;;;23.50;66.30;;;;;;5092778;28;20024;-83
2023/06/11 04:31:01;;;;;;;5.32;4.82;;;23.50;66.60;;;;;;5095582;28;20073;-83
2023/06/11 04:33:36;;;;;;;5.38;4.15;;;23.50;66.70;;;;;;5095154;28;20388;-83
2023/06/11 04:36:07;;;;;;;4.78;4.28;;;23.50;66.50;;;;;;5080382;28;20128;-83
2023/06/11 04:38:37;;;;;;;5.18;4.30;;;23.50;66.40;;;;;;5096573;28;20077;-83
2023/06/11 04:41:05;;;;;;;5.55;4.43;;;23.60;66.30;;;;;;5096605;28;20058;-83
2023/06/11 04:43:33;;;;;;;6.28;4.53;;;23.50;66.40;;;;;;5096673;28;20081;-83
2023/06/11 04:46:03;;;;;;;5.10;4.70;;;23.50;66.50;;;;;;5096434;28;20111;-83
2023/06/11 04:48:31;;;;;;;6.47;4.90;;;23.50;66.50;;;;;;5096677;28;20031;-83
2023/06/11 04:50:59;;;;;;;5.63;5.00;;;23.50;66.70;;;;;;5096296;28;20020;-83
2023/06/11 04:53:27;;;;;;;7.55;4.60;;;23.30;66.70;;;;;;5096045;28;20032;-82
2023/06/11 04:55:55;;;;;;;7.15;4.75;;;23.30;66.90;;;;;;5096604;28;20077;-83
2023/06/11 04:58:22;;;;;;;6.07;4.70;;;23.30;67.00;;;;;;5095017;28;20043;-83
2023/06/11 05:00:48;;;;;;;6.35;4.57;;;23.30;67.00;;;;;;5096217;28;20037;-83
2023/06/11 05:03:18;;;;;;;5.30;4.80;;;23.40;66.80;;;;;;5094797;28;20615;-83
2023/06/11 05:05:51;;;;;;;5.13;4.57;;;23.30;66.70;;;;;;5096107;28;20039;-83
2023/06/11 05:08:18;;;;;;;6.20;4.53;;;23.40;67.00;;;;;;5095070;28;20028;-83
2023/06/11 05:10:44;;;;;;;5.55;5.05;;;23.30;67.00;;;;;;5096007;28;20460;-83
2023/06/11 05:13:10;;;;;;;5.50;4.70;;;23.30;67.10;;;;;;5077940;28;20384;-83
2023/06/11 05:15:36;;;;;;;4.35;3.95;;;23.40;67.00;;;;;;5095975;28;20032;-82
2023/06/11 05:18:02;;;;;;;7.03;4.90;;;23.40;67.10;;;;;;5078197;28;20522;-83
2023/06/11 05:20:28;;;;;;;7.32;5.10;;;23.40;67.20;;;;;;5096090;28;20119;-83
2023/06/11 05:22:58;;;;;;;6.25;5.25;;;23.30;67.40;;;;;;5094361;28;20082;-83
2023/06/11 05:25:28;;;;;;;8.32;4.90;;;23.30;67.70;;;;;;5078085;28;20052;-83
2023/06/11 05:27:55;;;;;;;5.50;4.60;;;23.30;67.80;;;;;;5095677;28;20461;-83
2023/06/11 05:30:24;;;;;;;6.05;4.43;;;23.30;67.70;;;;;;5095887;28;20020;-83
2023/06/11 05:32:56;;;;;;;5.80;5.20;;;23.40;67.60;;;;;;5095464;28;20070;-83
2023/06/11 05:35:25;;;;;;;5.47;4.87;;;23.50;67.70;;;;;;5095626;28;20110;-83
2023/06/11 05:37:51;;;;;;;5.13;4.47;;;23.50;67.60;;;;;;5077372;28;20262;-83
2023/06/11 05:40:17;;;;;;;6.13;4.90;;;23.50;67.60;;;;;;5094795;28;20035;-83
2023/06/11 05:42:43;;;;;;;5.72;4.78;;;23.50;67.70;;;;;;5093984;28;20036;-83
2023/06/11 05:45:08;;;;;;;7.00;4.82;;;23.50;67.60;;;;;;5093766;28;20472;-83
2023/06/11 05:47:34;;;;;;;7.95;4.70;;;23.50;67.40;;;;;;5095247;28;20048;-83
2023/06/11 05:50:00;;;;;;;8.57;5.30;;;23.60;67.50;;;;;;5094099;28;20032;-83
2023/06/11 05:52:26;;;;;;;6.57;4.68;;;23.60;67.30;;;;;;5094117;28;20370;-83
2023/06/11 05:54:52;;;;;;;8.07;4.88;;;23.60;67.30;;;;;;5094774;28;20052;-83
2023/06/11 05:57:24;;;;;;;6.22;5.20;;;23.60;67.30;;;;;;5094131;28;20040;-83
2023/06/11 05:59:50;;;;;;;6.65;4.70;;;23.70;67.50;;;;;;5093736;28;20149;-83
2023/06/11 06:02:16;;;;;;;5.93;5.00;;;23.70;67.40;;;;;;5095063;28;20467;-83
2023/06/11 06:04:42;;;;;;;5.50;4.50;;;23.70;67.30;;;;;;5094930;28;20028;-82
2023/06/11 06:07:07;;;;;;;5.80;4.65;;;23.70;67.40;;;;;;5094793;28;20380;-83
2023/06/11 06:09:33;;;;;;;6.75;5.13;;;23.80;67.20;;;;;;5094872;28;20024;-83
2023/06/11 06:12:00;;;;;;;9.25;5.60;;;23.90;67.50;;;;;;5077161;28;20036;-83
2023/06/11 06:14:25;;;;;;;6.10;5.50;;;23.90;67.50;;;;;;5093325;28;20020;-83
2023/06/11 06:16:51;;;;;;;9.25;6.15;;;23.90;67.80;;;;;;5095276;28;20080;-83
2023/06/11 06:19:17;;;;;;;7.00;4.88;;;23.90;67.70;;;;;;5093367;28;20028;-83
2023/06/11 06:21:42;;;;;;;6.43;5.75;;;23.90;67.90;;;;;;5093235;28;20032;-83
2023/06/11 06:24:09;;;;;;;12.43;5.78;;;24.00;67.90;;;;;;5093299;28;20036;-83
2023/06/11 06:26:40;;;;;;;5.70;5.10;;;24.10;67.80;;;;;;5093526;28;20039;-84
2023/06/11 06:29:09;;;;;;;6.38;5.53;;;24.10;67.80;;;;;;5077990;28;20081;-83
2023/06/11 06:31:36;;;;;;;9.65;5.38;;;24.20;67.90;;;;;;5094360;28;20031;-83
2023/06/11 06:34:02;;;;;;;7.82;5.10;;;24.20;67.50;;;;;;5094396;28;20074;-83
2023/06/11 06:36:28;;;;;;;8.02;5.85;;;24.40;67.70;;;;;;5094329;28;20051;-83
2023/06/11 06:38:54;;;;;;;5.45;4.95;;;24.50;67.60;;;;;;5094019;28;20024;-84
2023/06/11 06:41:20;;;;;;;8.38;5.15;;;24.60;67.30;;;;;;5094376;28;20055;-84
2023/06/11 06:43:45;;;;;;;7.35;5.35;;;24.70;67.60;;;;;;5094457;28;20097;-83
2023/06/11 06:46:11;;;;;;;7.28;5.90;;;24.70;67.20;;;;;;5092943;28;20380;-84
2023/06/11 06:48:37;;;;;;;6.20;4.80;;;24.80;67.50;;;;;;5093635;28;20031;-83
2023/06/11 06:51:03;;;;;;;7.05;5.47;;;24.80;67.10;;;;;;5094589;28;20114;-83
2023/06/11 06:53:29;;;;;;;6.53;5.28;;;24.90;67.10;;;;;;5093425;28;20103;-83
2023/06/11 06:55:55;;;;;;;8.60;5.18;;;25.10;67.10;;;;;;5094394;28;20036;-84
2023/06/11 06:58:20;;;;;;;7.60;5.20;;;25.20;67.20;;;;;;5094289;28;20020;-84
2023/06/11 07:00:46;;;;;;;5.90;5.35;;;25.40;66.70;;;;;;5094585;28;20360;-83
2023/06/11 07:03:14;;;;;;;5.65;5.05;;;25.40;66.30;;;;;;5092709;28;20028;-84
2023/06/11 07:05:43;;;;;;;6.38;5.47;;;25.50;67.20;;;;;;5092578;28;20024;-83
2023/06/11 07:08:11;;;;;;;7.25;4.57;;;25.50;67.30;;;;;;5093623;28;20112;-84
2023/06/11 07:10:41;;;;;;;7.88;4.70;;;25.60;67.40;;;;;;5093918;28;20032;-81
2023/06/11 07:13:10;;;;;;;5.63;4.80;;;25.60;66.10;;;;;;5092624;28;20028;-84
2023/06/11 07:15:35;;;;;;;6.43;4.57;;;25.70;67.00;;;;;;5093821;28;20016;-84
2023/06/11 07:18:01;;;;;;;6.25;5.22;;;25.80;67.10;;;;;;5093546;28;20024;-84
2023/06/11 07:20:27;;;;;;;5.20;4.30;;;25.90;65.90;;;;;;5076196;28;20123;-84
2023/06/11 07:22:52;;;;;;;7.03;4.90;;;26.00;66.00;;;;;;5092501;28;20043;-84
2023/06/11 07:25:18;;;;;;;7.95;5.13;;;26.00;66.00;;;;;;5092605;28;20032;-84
2023/06/11 07:27:43;;;;;;;8.90;4.68;;;26.10;66.60;;;;;;5092258;28;20102;-84
2023/06/11 07:30:10;;;;;;;5.35;4.47;;;26.00;65.40;;;;;;5092819;28;20024;-83
2023/06/11 07:32:36;;;;;;;4.57;4.05;;;26.20;65.40;;;;;;5091962;28;20480;-84
2023/06/11 07:35:02;;;;;;;5.28;4.78;;;26.20;64.60;;;;;;5093732;28;20024;-83
2023/06/11 07:37:28;;;;;;;5.18;4.20;;;26.20;64.80;;;;;;5093592;28;20031;-84
2023/06/11 07:39:54;;;;;;;9.13;4.30;;;26.30;64.50;;;;;;5092531;28;20028;-84
2023/06/11 07:42:19;;;;;;;6.63;4.25;;;26.40;64.40;;;;;;5092290;28;20028;-83
2023/06/11 07:44:45;;;;;;;6.07;4.28;;;26.40;66.00;;;;;;5092293;28;20028;-84
2023/06/11 07:47:11;;;;;;;6.22;4.50;;;26.50;65.10;;;;;;5092954;28;20085;-84
2023/06/11 07:49:36;;;;;;;8.30;4.68;;;26.60;64.90;;;;;;5093440;28;20111;-84
2023/06/11 07:52:02;;;;;;;7.35;4.70;;;26.60;64.40;;;;;;5093405;28;20431;-83
2023/06/11 07:54:28;;;;;;;6.53;4.80;;;26.70;64.50;;;;;;5093404;28;20579;-82
2023/06/11 07:56:53;;;;;;;6.57;4.88;;;26.80;64.20;;;;;;5092284;28;20032;-84
2023/06/11 07:59:19;;;;;;;5.80;4.85;;;26.80;64.20;;;;;;5092754;28;20024;-84
2023/06/11 08:01:45;;;;;;;5.72;4.82;;;26.90;64.60;;;;;;5091834;28;20036;-82
2023/06/11 08:04:10;;;;;;;6.30;4.50;;;27.00;64.10;;;;;;5095262;28;20457;-83
2023/06/11 08:06:36;;;;;;;4.85;4.40;;;27.00;64.50;;;;;;5079235;28;20032;-83
2023/06/11 08:09:02;;;;;;;6.68;5.38;;;27.10;64.30;;;;;;5097215;28;20055;-83
2023/06/11 08:11:27;;;;;;;5.60;4.55;;;27.20;64.40;;;;;;5097153;28;20128;-84
2023/06/11 08:13:53;;;;;;;6.03;4.30;;;27.20;63.80;;;;;;5095596;28;20032;-83
2023/06/11 08:16:19;;;;;;;5.20;4.70;;;27.20;63.50;;;;;;5078936;28;20417;-83
2023/06/11 08:18:45;;;;;;;4.95;4.45;;;27.40;63.30;;;;;;5097062;28;20032;-83
2023/06/11 08:21:10;;;;;;;7.93;4.57;;;27.50;63.00;;;;;;5095649;28;20042;-84
2023/06/11 08:23:38;;;;;;;8.32;4.55;;;27.60;63.70;;;;;;5079394;28;20032;-83
2023/06/11 08:26:04;;;;;;;7.10;4.15;;;27.80;63.80;;;;;;5096075;28;20032;-83
2023/06/11 08:28:30;;;;;;;7.65;4.45;;;27.90;62.30;;;;;;5095573;28;20079;-83
2023/06/11 08:30:56;;;;;;;7.63;4.43;;;28.00;62.80;;;;;;5096784;28;20032;-83
2023/06/11 08:33:23;;;;;;;7.15;4.43;;;28.10;62.00;;;;;;5096654;28;20110;-84
2023/06/11 08:35:48;;;;;;;6.68;4.32;;;28.10;62.70;;;;;;5095441;28;20031;-83
2023/06/11 08:38:14;;;;;;;4.88;4.47;;;28.10;62.40;;;;;;5096040;28;20028;-83
2023/06/11 08:40:42;;;;;;;7.13;4.80;;;28.20;63.40;;;;;;5096522;28;20025;-83
2023/06/11 08:43:08;;;;;;;9.18;4.80;;;28.30;62.40;;;;;;5096639;28;20376;-83
2023/06/11 08:45:34;;;;;;;6.13;4.68;;;28.30;62.90;;;;;;5096701;28;20032;-82
2023/06/11 08:48:03;;;;;;;6.30;5.05;;;28.30;63.00;;;;;;5095411;28;20035;-82
2023/06/11 08:50:31;;;;;;;7.13;4.38;;;28.40;61.00;;;;;;5096496;28;20024;-84
2023/06/11 08:53:00;;;;;;;5.85;4.60;;;28.40;61.70;;;;;;5095516;28;20032;-83
2023/06/11 08:55:26;;;;;;;5.88;4.20;;;28.50;61.50;;;;;;5094734;28;20071;-83
2023/06/11 08:57:52;;;;;;;7.22;4.45;;;28.60;62.50;;;;;;5095054;28;20055;-83
2023/06/11 09:00:19;;;;;;;7.18;4.05;;;28.80;62.00;;;;;;5096407;28;20036;-83
2023/06/11 09:02:45;;;;;;;4.85;3.90;;;29.00;62.00;;;;;;5096222;28;20081;-83
2023/06/11 09:05:11;;;;;;;4.90;3.80;;;29.00;61.20;;;;;;5096030;28;20112;-84
2023/06/11 09:07:37;;;;;;;5.18;4.32;;;29.30;60.60;;;;;;5096411;28;20032;-83
2023/06/11 09:10:10;;;;;;;5.72;4.43;;;29.40;60.80;;;;;;5094684;28;20384;-84
2023/06/11 09:12:36;;;;;;;4.68;4.00;;;29.50;60.20;;;;;;5095916;28;20028;-84
2023/06/11 09:15:04;;;;;;;5.53;4.43;;;29.60;60.90;;;;;;5094777;28;20030;-83
2023/06/11 09:17:34;;;;;;;5.13;4.63;;;29.50;60.10;;;;;;5094344;28;20034;-83
2023/06/11 09:20:07;;;;;;;6.18;4.35;;;29.50;60.60;;;;;;5095463;28;20035;-84
2023/06/11 09:22:35;;;;;;;5.10;4.22;;;29.60;60.20;;;;;;5094101;28;20032;-82
2023/06/11 09:25:06;;;;;;;5.15;4.35;;;29.70;60.20;;;;;;5093789;28;20038;-83
2023/06/11 09:27:32;;;;;;;8.50;4.80;;;29.70;59.80;;;;;;5095539;28;20050;-84
2023/06/11 09:30:16;;;;;;;4.95;3.88;;;29.80;59.60;;;;;;5095650;28;20464;-83
2023/06/11 09:32:45;;;;;;;7.13;4.05;;;29.80;60.80;;;;;;5094585;28;20118;-83
2023/06/11 09:35:13;;;;;;;7.13;4.15;;;30.00;60.00;;;;;;5094610;28;20410;-84
2023/06/11 09:37:50;;;;;;;7.15;4.00;;;30.10;58.60;;;;;;5093870;28;20091;-83
2023/06/11 09:40:19;;;;;;;5.18;4.22;;;30.10;58.30;;;;;;5094907;28;20032;-83
2023/06/11 09:42:46;;;;;;;7.45;3.65;;;30.10;57.80;;;;;;5093686;28;20039;-82
2023/06/11 09:45:13;;;;;;;7.18;4.25;;;30.10;58.50;;;;;;5093835;28;20365;-83
2023/06/11 09:47:40;;;;;;;4.75;3.72;;;30.10;58.60;;;;;;5076936;28;20127;-84
2023/06/11 09:50:07;;;;;;;6.50;4.00;;;30.20;58.60;;;;;;5094951;28;20028;-83
2023/06/11 09:52:34;;;;;;;7.70;3.90;;;30.30;58.30;;;;;;5095273;28;20055;-84
2023/06/11 09:55:02;;;;;;;4.75;4.25;;;30.40;59.10;;;;;;5094800;28;20119;-84
2023/06/11 09:57:29;;;;;;;5.03;3.80;;;30.60;57.60;;;;;;5093581;28;20389;-83
2023/06/11 09:59:55;;;;;;;7.90;4.00;;;30.60;56.80;;;;;;5094559;28;20472;-84
2023/06/11 10:02:20;;;;;;;9.60;4.10;;;30.70;57.10;;;;;;5094705;28;20146;-83
2023/06/11 10:04:47;;;;;;;5.38;3.63;;;30.70;56.30;;;;;;5093184;28;20085;-84
2023/06/11 10:07:14;;;;;;;5.53;3.97;;;30.80;57.00;;;;;;5093330;28;20035;-84
2023/06/11 10:09:41;;;;;;;4.75;3.85;;;30.90;56.50;;;;;;5093031;28;20020;-83
2023/06/11 10:12:07;;;;;;;4.32;3.65;;;31.00;55.70;;;;;;5094349;28;20024;-84
2023/06/11 10:14:34;;;;;;;6.80;3.90;;;31.00;55.70;;;;;;5094276;28;20530;-84
2023/06/11 10:17:02;;;;;;;6.15;4.05;;;31.00;55.00;;;;;;5094656;28;20028;-83
2023/06/11 10:19:34;;;;;;;9.68;4.13;;;31.10;55.20;;;;;;5094539;28;20034;-84
2023/06/11 10:22:02;;;;;;;6.60;3.70;;;31.10;56.30;;;;;;5094801;28;20032;-84
2023/06/11 10:24:28;;;;;;;3.95;3.55;;;31.30;55.90;;;;;;5094428;28;20073;-84
2023/06/11 10:27:33;;;;;;;5.32;4.28;;;31.40;54.80;;;;;;5093951;28;20095;-84
2023/06/11 10:29:59;;;;;;;4.78;4.10;;;31.30;55.10;;;;;;5081251;28;20438;-84
2023/06/11 10:32:25;;;;;;;4.88;3.78;;;31.30;54.20;;;;;;5093064;28;20032;-83
2023/06/11 10:34:59;;;;;;;6.38;3.72;;;31.30;54.50;;;;;;5092890;28;20089;-84
2023/06/11 10:37:35;;;;;;;4.55;3.25;;;31.40;55.60;;;;;;5093769;28;20086;-83
2023/06/11 10:40:01;;;;;;;4.93;3.08;;;31.50;54.20;;;;;;5093546;28;20437;-84
2023/06/11 10:42:52;;;;;;;5.72;3.20;;;31.60;54.40;;;;;;5094617;28;20046;-84
2023/06/11 10:45:17;;;;;;;4.25;3.30;;;31.80;53.50;;;;;;5094049;28;20444;-84
2023/06/11 10:47:49;;;;;;;6.30;2.50;;;31.90;51.10;;;;;;5076011;28;20039;-83
2023/06/11 10:50:25;;;;;;;;;;;31.80;50.90;;;;;;5094600;28;20020;-83
2023/06/11 10:52:58;;;;;;;3.88;2.53;;;31.80;50.80;;;;;;5094505;28;20268;-83
2023/06/11 10:55:29;;;;;;;4.00;2.95;;;31.70;50.50;;;;;;5092333;28;20149;-82
2023/06/11 10:57:56;;;;;;;3.35;2.38;;;31.80;50.60;;;;;;5094141;28;20062;-83
2023/06/11 11:00:22;;;;;;;4.38;2.47;;;31.80;50.50;;;;;;5093739;28;20032;-83
2023/06/11 11:02:50;;;;;;;4.40;2.90;;;31.90;50.70;;;;;;5093902;28;20062;-83
2023/06/11 11:05:16;;;;;;;3.65;2.45;;;32.00;50.40;;;;;;5093848;28;20059;-83
2023/06/11 11:07:45;;;;;;;5.35;3.20;;;31.90;50.10;;;;;;5093555;28;20052;-83
2023/06/11 11:10:12;;;;;;;4.88;2.70;;;31.90;49.90;;;;;;5093494;28;20487;-83
2023/06/11 11:12:42;;;;;;;6.78;2.40;;;31.90;50.20;;;;;;5093723;28;20466;-83
2023/06/11 11:15:11;;;;;;;5.82;2.67;;;32.00;50.70;;;;;;5094052;28;20028;-82
2023/06/11 11:17:41;;;;;;;7.65;3.05;;;32.10;51.10;;;;;;5093452;28;20407;-83
2023/06/11 11:20:13;;;;;;;6.03;2.53;;;32.20;50.10;;;;;;5093624;28;20034;-83
2023/06/11 11:22:39;;;;;;;4.85;2.85;;;32.20;49.50;;;;;;5093530;28;20081;-83
2023/06/11 11:25:07;;;;;;;4.15;2.50;;;32.20;50.40;;;;;;5094289;28;20032;-83
2023/06/11 11:27:33;;;;;;;3.88;2.40;;;32.20;50.50;;;;;;5093604;28;20028;-83
2023/06/11 11:30:02;;;;;;;5.40;2.72;;;32.40;50.30;;;;;;5091768;28;20057;-83
2023/06/11 11:32:31;;;;;;;5.63;3.08;;;32.40;49.60;;;;;;5093216;28;20081;-83
2023/06/11 11:34:57;;;;;;;4.20;2.63;;;32.40;49.10;;;;;;5092412;28;20517;-83
2023/06/11 11:37:23;;;;;;;5.88;2.92;;;32.50;49.30;;;;;;5092052;28;20036;-82
2023/06/11 11:39:52;;;;;;;3.08;2.55;;;32.60;50.00;;;;;;5096323;28;20024;-82
2023/06/11 11:42:18;;;;;;;6.70;2.60;;;32.70;49.20;;;;;;5097070;28;20035;-82
2023/06/11 11:44:43;;;;;;;3.00;2.70;;;32.80;48.40;;;;;;5097156;28;20035;-83
2023/06/11 11:47:11;;;;;;;3.88;2.45;;;32.80;47.90;;;;;;5097460;28;20036;-83
2023/06/11 11:49:37;;;;;;;2.80;2.25;;;32.70;47.40;;;;;;5096947;28;20051;-82
2023/06/11 11:52:03;;;;;;;4.47;2.78;;;32.70;48.10;;;;;;5097272;28;20076;-82
2023/06/11 11:54:29;;;;;;;7.40;2.70;;;32.80;47.20;;;;;;5097446;28;20209;-82
2023/06/11 11:57:07;;;;;;;6.07;2.65;;;32.70;46.50;;;;;;5097655;28;20521;-83
2023/06/11 11:59:43;;;;;;;4.60;2.67;;;32.60;47.50;;;;;;5096584;28;20024;-83
2023/06/11 12:02:09;;;;;;;9.80;2.88;;;32.80;48.20;;;;;;5079482;28;20129;-82
2023/06/11 12:04:40;;;;;;;3.95;2.88;;;32.80;48.80;;;;;;5097136;28;20036;-82
2023/06/11 12:07:13;;;;;;;4.00;2.43;;;32.90;48.00;;;;;;5097404;28;20076;-83
2023/06/11 12:09:39;;;;;;;2.40;2.10;;;32.90;47.70;;;;;;5097426;28;20765;-83
2023/06/11 12:12:07;;;;;;;3.55;2.55;;;33.00;46.50;;;;;;5097350;28;20076;-83
2023/06/11 12:14:33;;;;;;;6.80;2.80;;;33.00;45.80;;;;;;5097037;28;20042;-83
2023/06/11 12:16:58;;;;;;;5.07;2.70;;;32.90;45.50;;;;;;5096757;28;20028;-82
2023/06/11 12:19:24;;;;;;;4.50;2.28;;;32.80;45.50;;;;;;5096978;28;20480;-81
2023/06/11 12:21:51;;;;;;;5.72;2.30;;;32.80;45.80;;;;;;5096906;28;20094;-81
2023/06/11 12:24:16;;;;;;;6.55;2.58;;;32.90;44.50;;;;;;5096829;28;20040;-83
2023/06/11 12:26:50;;;;;;;3.85;2.53;;;33.00;44.30;;;;;;5095696;28;20479;-82
2023/06/11 12:29:16;;;;;;;6.60;2.17;;;33.20;45.30;;;;;;5097475;28;20024;-81
2023/06/11 12:31:42;;;;;;;5.05;2.72;;;33.30;45.70;;;;;;5096221;28;20028;-82
2023/06/11 12:34:10;;;;;;;3.72;2.50;;;33.50;44.70;;;;;;5095802;28;20526;-82
2023/06/11 12:36:37;;;;;;;4.47;2.28;;;33.50;43.40;;;;;;5096970;28;20036;-82
2023/06/11 12:39:06;;;;;;;5.57;2.97;;;33.30;44.20;;;;;;5097040;28;20040;-82
2023/06/11 12:41:31;;;;;;;2.78;2.40;;;33.30;44.40;;;;;;5096610;28;20028;-82
2023/06/11 12:44:00;;;;;;;2.15;1.95;;;33.20;45.00;;;;;;5096398;28;20517;-81
2023/06/11 12:46:26;;;;;;;2.67;2.25;;;33.30;43.10;;;;;;5096619;28;20040;-82
2023/06/11 12:48:52;;;;;;;3.72;2.58;;;33.30;43.90;;;;;;5079004;28;20478;-81